sensor_id;sensor_type;location;lat;lon;timestamp;P1;durP1;ratioP1;P2;durP2;ratioP2
62030;SDS011;62035;52.094;5.112;2023-10-08T00:02:11;22.50;;;5.35;;
62030;SDS011;62035;52.094;5.112;2023-10-08T00:04:48;30.52;;;6.85;;
62030;SDS011;62035;52.094;5.112;2023-10-08T00:07:16;26.70;;;5.60;;
62030;SDS011;62035;52.094;5.112;2023-10-08T00:09:47;29.77;;;6.70;;
62030;SDS011;62035;52.094;5.112;2023-10-08T00:12:16;24.15;;;5.80;;
62030;SDS011;62035;52.094;5.112;2023-10-08T00:14:46;24.77;;;6.82;;
62030;SDS011;62035;52.094;5.112;2023-10-08T00:17:15;26.52;;;5.75;;
62030;SDS011;62035;52.094;5.112;2023-10-08T00:19:43;20.35;;;5.70;;
62030;SDS011;62035;52.094;5.112;2023-10-08T00:22:10;33.15;;;6.28;;
62030;SDS011;62035;52.094;5.112;2023-10-08T00:24:39;21.17;;;5.82;;
62030;SDS011;62035;52.094;5.112;2023-10-08T00:27:08;21.23;;;5.88;;
62030;SDS011;62035;52.094;5.112;2023-10-08T00:29:36;23.45;;;5.45;;
62030;SDS011;62035;52.094;5.112;2023-10-08T00:32:07;27.73;;;6.53;;
62030;SDS011;62035;52.094;5.112;2023-10-08T00:34:41;25.02;;;5.82;;
62030;SDS011;62035;52.094;5.112;2023-10-08T00:37:09;23.02;;;5.47;;
62030;SDS011;62035;52.094;5.112;2023-10-08T00:39:40;18.25;;;5.50;;
62030;SDS011;62035;52.094;5.112;2023-10-08T00:42:07;24.13;;;5.43;;
62030;SDS011;62035;52.094;5.112;2023-10-08T00:44:35;21.77;;;5.63;;
62030;SDS011;62035;52.094;5.112;2023-10-08T00:47:15;24.55;;;5.20;;
62030;SDS011;62035;52.094;5.112;2023-10-08T00:49:43;22.83;;;5.45;;
62030;SDS011;62035;52.094;5.112;2023-10-08T00:52:28;28.88;;;5.50;;
62030;SDS011;62035;52.094;5.112;2023-10-08T00:55:04;27.05;;;5.82;;
62030;SDS011;62035;52.094;5.112;2023-10-08T00:57:40;25.42;;;6.20;;
62030;SDS011;62035;52.094;5.112;2023-10-08T01:00:13;22.77;;;5.20;;
62030;SDS011;62035;52.094;5.112;2023-10-08T01:02:49;19.65;;;5.03;;
62030;SDS011;62035;52.094;5.112;2023-10-08T01:05:26;22.20;;;5.60;;
62030;SDS011;62035;52.094;5.112;2023-10-08T01:08:08;22.88;;;7.03;;
62030;SDS011;62035;52.094;5.112;2023-10-08T01:10:38;29.08;;;6.13;;
62030;SDS011;62035;52.094;5.112;2023-10-08T01:13:08;24.08;;;5.78;;
62030;SDS011;62035;52.094;5.112;2023-10-08T01:15:41;21.73;;;6.40;;
62030;SDS011;62035;52.094;5.112;2023-10-08T01:18:12;26.20;;;7.43;;
62030;SDS011;62035;52.094;5.112;2023-10-08T01:20:43;24.63;;;6.43;;
62030;SDS011;62035;52.094;5.112;2023-10-08T01:23:19;20.48;;;5.80;;
62030;SDS011;62035;52.094;5.112;2023-10-08T01:25:48;31.75;;;6.47;;
62030;SDS011;62035;52.094;5.112;2023-10-08T01:28:18;31.02;;;5.63;;
62030;SDS011;62035;52.094;5.112;2023-10-08T01:30:51;25.63;;;6.35;;
62030;SDS011;62035;52.094;5.112;2023-10-08T01:33:20;21.38;;;5.93;;
62030;SDS011;62035;52.094;5.112;2023-10-08T01:35:48;26.15;;;6.80;;
62030;SDS011;62035;52.094;5.112;2023-10-08T01:38:15;23.90;;;6.18;;
62030;SDS011;62035;52.094;5.112;2023-10-08T01:40:50;27.63;;;5.90;;
62030;SDS011;62035;52.094;5.112;2023-10-08T01:43:17;23.05;;;5.45;;
62030;SDS011;62035;52.094;5.112;2023-10-08T01:45:46;22.88;;;5.45;;
62030;SDS011;62035;52.094;5.112;2023-10-08T01:48:17;24.27;;;5.67;;
62030;SDS011;62035;52.094;5.112;2023-10-08T01:50:53;30.50;;;6.45;;
62030;SDS011;62035;52.094;5.112;2023-10-08T01:53:21;19.65;;;6.13;;
62030;SDS011;62035;52.094;5.112;2023-10-08T01:55:48;26.40;;;7.00;;
62030;SDS011;62035;52.094;5.112;2023-10-08T01:58:19;33.13;;;6.10;;
62030;SDS011;62035;52.094;5.112;2023-10-08T02:00:48;28.63;;;6.35;;
62030;SDS011;62035;52.094;5.112;2023-10-08T02:03:17;26.90;;;6.00;;
62030;SDS011;62035;52.094;5.112;2023-10-08T02:05:45;21.95;;;6.53;;
62030;SDS011;62035;52.094;5.112;2023-10-08T02:08:13;21.55;;;6.35;;
62030;SDS011;62035;52.094;5.112;2023-10-08T02:10:42;23.40;;;6.63;;
62030;SDS011;62035;52.094;5.112;2023-10-08T02:13:13;26.58;;;6.82;;
62030;SDS011;62035;52.094;5.112;2023-10-08T02:15:44;25.10;;;7.05;;
62030;SDS011;62035;52.094;5.112;2023-10-08T02:20:40;34.30;;;6.07;;
62030;SDS011;62035;52.094;5.112;2023-10-08T02:23:07;20.02;;;5.57;;
62030;SDS011;62035;52.094;5.112;2023-10-08T02:25:37;23.35;;;6.00;;
62030;SDS011;62035;52.094;5.112;2023-10-08T02:28:05;26.60;;;6.03;;
62030;SDS011;62035;52.094;5.112;2023-10-08T02:30:34;26.42;;;6.30;;
62030;SDS011;62035;52.094;5.112;2023-10-08T02:33:03;31.85;;;7.10;;
62030;SDS011;62035;52.094;5.112;2023-10-08T02:35:39;30.23;;;6.50;;
62030;SDS011;62035;52.094;5.112;2023-10-08T02:38:08;27.98;;;6.35;;
62030;SDS011;62035;52.094;5.112;2023-10-08T02:40:37;23.83;;;5.93;;
62030;SDS011;62035;52.094;5.112;2023-10-08T02:43:10;26.83;;;6.63;;
62030;SDS011;62035;52.094;5.112;2023-10-08T02:45:39;31.67;;;6.97;;
62030;SDS011;62035;52.094;5.112;2023-10-08T02:48:08;28.80;;;7.38;;
62030;SDS011;62035;52.094;5.112;2023-10-08T02:50:38;21.63;;;6.47;;
62030;SDS011;62035;52.094;5.112;2023-10-08T02:53:06;21.10;;;6.43;;
62030;SDS011;62035;52.094;5.112;2023-10-08T02:55:37;27.38;;;6.28;;
62030;SDS011;62035;52.094;5.112;2023-10-08T02:58:09;27.73;;;5.93;;
62030;SDS011;62035;52.094;5.112;2023-10-08T03:00:40;29.17;;;6.68;;
62030;SDS011;62035;52.094;5.112;2023-10-08T03:03:09;24.02;;;6.40;;
62030;SDS011;62035;52.094;5.112;2023-10-08T03:05:42;34.47;;;6.85;;
62030;SDS011;62035;52.094;5.112;2023-10-08T03:08:12;26.23;;;6.40;;
62030;SDS011;62035;52.094;5.112;2023-10-08T03:10:45;23.77;;;6.50;;
62030;SDS011;62035;52.094;5.112;2023-10-08T03:13:14;25.45;;;6.15;;
62030;SDS011;62035;52.094;5.112;2023-10-08T03:15:42;25.65;;;6.85;;
62030;SDS011;62035;52.094;5.112;2023-10-08T03:18:24;28.52;;;7.10;;
62030;SDS011;62035;52.094;5.112;2023-10-08T03:21:00;23.55;;;6.50;;
62030;SDS011;62035;52.094;5.112;2023-10-08T03:23:29;29.90;;;7.80;;
62030;SDS011;62035;52.094;5.112;2023-10-08T03:25:59;22.13;;;6.45;;
62030;SDS011;62035;52.094;5.112;2023-10-08T03:28:35;27.95;;;7.03;;
62030;SDS011;62035;52.094;5.112;2023-10-08T03:31:03;21.88;;;6.93;;
62030;SDS011;62035;52.094;5.112;2023-10-08T03:33:32;25.67;;;6.28;;
62030;SDS011;62035;52.094;5.112;2023-10-08T03:36:03;26.90;;;6.30;;
62030;SDS011;62035;52.094;5.112;2023-10-08T03:38:39;24.00;;;7.00;;
62030;SDS011;62035;52.094;5.112;2023-10-08T03:41:17;21.60;;;6.40;;
62030;SDS011;62035;52.094;5.112;2023-10-08T03:43:46;32.47;;;7.72;;
62030;SDS011;62035;52.094;5.112;2023-10-08T03:46:27;24.85;;;6.70;;
62030;SDS011;62035;52.094;5.112;2023-10-08T03:48:57;32.55;;;6.85;;
62030;SDS011;62035;52.094;5.112;2023-10-08T03:51:30;23.85;;;7.00;;
62030;SDS011;62035;52.094;5.112;2023-10-08T03:54:05;30.25;;;6.57;;
62030;SDS011;62035;52.094;5.112;2023-10-08T03:56:46;23.67;;;6.85;;
62030;SDS011;62035;52.094;5.112;2023-10-08T03:59:15;22.83;;;7.20;;
62030;SDS011;62035;52.094;5.112;2023-10-08T04:01:55;29.13;;;7.77;;
62030;SDS011;62035;52.094;5.112;2023-10-08T04:04:26;29.27;;;6.70;;
62030;SDS011;62035;52.094;5.112;2023-10-08T04:07:15;31.55;;;7.30;;
62030;SDS011;62035;52.094;5.112;2023-10-08T04:09:54;31.27;;;8.45;;
62030;SDS011;62035;52.094;5.112;2023-10-08T04:15:17;27.90;;;7.97;;
62030;SDS011;62035;52.094;5.112;2023-10-08T04:17:45;29.55;;;7.70;;
62030;SDS011;62035;52.094;5.112;2023-10-08T04:20:18;27.80;;;7.55;;
62030;SDS011;62035;52.094;5.112;2023-10-08T04:22:58;27.40;;;7.95;;
62030;SDS011;62035;52.094;5.112;2023-10-08T04:25:26;24.65;;;7.50;;
62030;SDS011;62035;52.094;5.112;2023-10-08T04:27:54;32.83;;;9.02;;
62030;SDS011;62035;52.094;5.112;2023-10-08T04:30:24;23.35;;;7.50;;
62030;SDS011;62035;52.094;5.112;2023-10-08T04:32:58;26.60;;;7.35;;
62030;SDS011;62035;52.094;5.112;2023-10-08T04:35:34;28.75;;;7.82;;
62030;SDS011;62035;52.094;5.112;2023-10-08T04:38:06;23.85;;;7.55;;
62030;SDS011;62035;52.094;5.112;2023-10-08T04:40:34;25.88;;;7.82;;
62030;SDS011;62035;52.094;5.112;2023-10-08T04:43:07;24.35;;;6.78;;
62030;SDS011;62035;52.094;5.112;2023-10-08T04:45:36;42.70;;;8.95;;
62030;SDS011;62035;52.094;5.112;2023-10-08T04:48:04;32.15;;;6.80;;
62030;SDS011;62035;52.094;5.112;2023-10-08T04:50:36;35.60;;;7.95;;
62030;SDS011;62035;52.094;5.112;2023-10-08T04:53:10;33.33;;;6.95;;
62030;SDS011;62035;52.094;5.112;2023-10-08T04:55:41;31.15;;;6.95;;
62030;SDS011;62035;52.094;5.112;2023-10-08T04:58:14;23.45;;;7.05;;
62030;SDS011;62035;52.094;5.112;2023-10-08T05:00:47;23.77;;;6.55;;
62030;SDS011;62035;52.094;5.112;2023-10-08T05:03:25;30.02;;;7.05;;
62030;SDS011;62035;52.094;5.112;2023-10-08T05:06:01;27.08;;;6.35;;
62030;SDS011;62035;52.094;5.112;2023-10-08T05:08:35;25.67;;;6.38;;
62030;SDS011;62035;52.094;5.112;2023-10-08T05:11:14;27.27;;;6.88;;
62030;SDS011;62035;52.094;5.112;2023-10-08T05:14:11;28.08;;;7.25;;
62030;SDS011;62035;52.094;5.112;2023-10-08T05:16:54;15.57;;;6.63;;
62030;SDS011;62035;52.094;5.112;2023-10-08T05:19:26;24.83;;;6.70;;
62030;SDS011;62035;52.094;5.112;2023-10-08T05:22:09;27.00;;;6.60;;
62030;SDS011;62035;52.094;5.112;2023-10-08T05:24:57;23.50;;;6.90;;
62030;SDS011;62035;52.094;5.112;2023-10-08T05:27:33;16.85;;;5.55;;
62030;SDS011;62035;52.094;5.112;2023-10-08T05:30:21;22.40;;;6.10;;
62030;SDS011;62035;52.094;5.112;2023-10-08T05:33:04;26.67;;;5.75;;
62030;SDS011;62035;52.094;5.112;2023-10-08T05:35:50;29.02;;;4.70;;
62030;SDS011;62035;52.094;5.112;2023-10-08T05:38:29;19.75;;;4.32;;
62030;SDS011;62035;52.094;5.112;2023-10-08T05:41:14;15.90;;;3.65;;
62030;SDS011;62035;52.094;5.112;2023-10-08T05:43:56;18.70;;;3.70;;
62030;SDS011;62035;52.094;5.112;2023-10-08T05:46:49;11.30;;;3.45;;
62030;SDS011;62035;52.094;5.112;2023-10-08T05:49:49;10.02;;;3.00;;
62030;SDS011;62035;52.094;5.112;2023-10-08T05:52:54;11.40;;;3.55;;
62030;SDS011;62035;52.094;5.112;2023-10-08T05:55:29;13.30;;;3.17;;
62030;SDS011;62035;52.094;5.112;2023-10-08T05:58:02;8.50;;;3.10;;
62030;SDS011;62035;52.094;5.112;2023-10-08T06:00:39;9.10;;;2.83;;
62030;SDS011;62035;52.094;5.112;2023-10-08T06:03:31;15.18;;;3.10;;
62030;SDS011;62035;52.094;5.112;2023-10-08T06:06:14;13.45;;;2.97;;
62030;SDS011;62035;52.094;5.112;2023-10-08T06:09:02;10.45;;;3.10;;
62030;SDS011;62035;52.094;5.112;2023-10-08T06:11:49;9.98;;;3.60;;
62030;SDS011;62035;52.094;5.112;2023-10-08T06:14:30;9.25;;;3.50;;
62030;SDS011;62035;52.094;5.112;2023-10-08T06:17:18;16.23;;;4.05;;
62030;SDS011;62035;52.094;5.112;2023-10-08T06:20:00;9.65;;;4.18;;
62030;SDS011;62035;52.094;5.112;2023-10-08T06:22:35;12.73;;;3.22;;
62030;SDS011;62035;52.094;5.112;2023-10-08T06:25:03;12.23;;;3.10;;
62030;SDS011;62035;52.094;5.112;2023-10-08T06:27:50;16.90;;;4.43;;
62030;SDS011;62035;52.094;5.112;2023-10-08T06:30:21;11.40;;;3.70;;
62030;SDS011;62035;52.094;5.112;2023-10-08T06:32:49;10.82;;;3.92;;
62030;SDS011;62035;52.094;5.112;2023-10-08T06:35:19;12.98;;;4.15;;
62030;SDS011;62035;52.094;5.112;2023-10-08T06:37:51;9.95;;;3.70;;
62030;SDS011;62035;52.094;5.112;2023-10-08T06:40:21;12.83;;;4.37;;
62030;SDS011;62035;52.094;5.112;2023-10-08T06:43:09;11.75;;;4.53;;
62030;SDS011;62035;52.094;5.112;2023-10-08T06:45:47;12.85;;;4.07;;
62030;SDS011;62035;52.094;5.112;2023-10-08T06:48:18;14.43;;;3.90;;
62030;SDS011;62035;52.094;5.112;2023-10-08T06:50:47;14.02;;;3.90;;
62030;SDS011;62035;52.094;5.112;2023-10-08T06:53:16;14.80;;;3.95;;
62030;SDS011;62035;52.094;5.112;2023-10-08T06:55:44;17.52;;;3.67;;
62030;SDS011;62035;52.094;5.112;2023-10-08T06:58:15;16.73;;;3.60;;
62030;SDS011;62035;52.094;5.112;2023-10-08T07:00:43;12.10;;;3.50;;
62030;SDS011;62035;52.094;5.112;2023-10-08T07:03:14;15.55;;;3.15;;
62030;SDS011;62035;52.094;5.112;2023-10-08T07:05:43;14.60;;;3.42;;
62030;SDS011;62035;52.094;5.112;2023-10-08T07:08:20;11.35;;;2.65;;
62030;SDS011;62035;52.094;5.112;2023-10-08T07:10:49;11.70;;;2.75;;
62030;SDS011;62035;52.094;5.112;2023-10-08T07:13:18;8.65;;;2.85;;
62030;SDS011;62035;52.094;5.112;2023-10-08T07:15:48;6.40;;;2.17;;
62030;SDS011;62035;52.094;5.112;2023-10-08T07:18:15;10.18;;;2.35;;
62030;SDS011;62035;52.094;5.112;2023-10-08T07:20:50;8.00;;;2.38;;
62030;SDS011;62035;52.094;5.112;2023-10-08T07:23:20;8.65;;;2.00;;
62030;SDS011;62035;52.094;5.112;2023-10-08T07:25:52;9.27;;;2.15;;
62030;SDS011;62035;52.094;5.112;2023-10-08T07:28:25;9.88;;;2.30;;
62030;SDS011;62035;52.094;5.112;2023-10-08T07:30:52;6.55;;;2.00;;
62030;SDS011;62035;52.094;5.112;2023-10-08T07:33:20;6.28;;;1.83;;
62030;SDS011;62035;52.094;5.112;2023-10-08T07:35:51;7.03;;;1.90;;
62030;SDS011;62035;52.094;5.112;2023-10-08T07:38:25;14.07;;;2.30;;
62030;SDS011;62035;52.094;5.112;2023-10-08T07:40:55;9.43;;;2.10;;
62030;SDS011;62035;52.094;5.112;2023-10-08T07:43:22;8.98;;;2.00;;
62030;SDS011;62035;52.094;5.112;2023-10-08T07:45:51;11.07;;;2.15;;
62030;SDS011;62035;52.094;5.112;2023-10-08T07:48:20;5.72;;;1.90;;
62030;SDS011;62035;52.094;5.112;2023-10-08T07:50:55;4.32;;;1.70;;
62030;SDS011;62035;52.094;5.112;2023-10-08T07:53:22;6.22;;;1.85;;
62030;SDS011;62035;52.094;5.112;2023-10-08T07:55:50;4.57;;;1.80;;
62030;SDS011;62035;52.094;5.112;2023-10-08T07:58:18;5.40;;;1.80;;
62030;SDS011;62035;52.094;5.112;2023-10-08T08:00:47;10.02;;;2.28;;
62030;SDS011;62035;52.094;5.112;2023-10-08T08:03:20;6.90;;;2.00;;
62030;SDS011;62035;52.094;5.112;2023-10-08T08:05:48;8.88;;;2.22;;
62030;SDS011;62035;52.094;5.112;2023-10-08T08:08:19;7.60;;;1.80;;
62030;SDS011;62035;52.094;5.112;2023-10-08T08:10:49;5.03;;;1.90;;
62030;SDS011;62035;52.094;5.112;2023-10-08T08:13:26;7.18;;;2.05;;
62030;SDS011;62035;52.094;5.112;2023-10-08T08:15:56;5.72;;;2.33;;
62030;SDS011;62035;52.094;5.112;2023-10-08T08:18:26;6.63;;;2.60;;
62030;SDS011;62035;52.094;5.112;2023-10-08T08:21:01;8.18;;;3.30;;
62030;SDS011;62035;52.094;5.112;2023-10-08T08:23:29;6.15;;;2.75;;
62030;SDS011;62035;52.094;5.112;2023-10-08T08:25:57;6.97;;;2.90;;
62030;SDS011;62035;52.094;5.112;2023-10-08T08:28:37;9.20;;;3.38;;
62030;SDS011;62035;52.094;5.112;2023-10-08T08:31:07;8.13;;;3.40;;
62030;SDS011;62035;52.094;5.112;2023-10-08T08:33:40;6.75;;;3.05;;
62030;SDS011;62035;52.094;5.112;2023-10-08T08:36:19;11.55;;;3.63;;
62030;SDS011;62035;52.094;5.112;2023-10-08T08:38:47;5.40;;;3.63;;
62030;SDS011;62035;52.094;5.112;2023-10-08T08:41:15;8.70;;;3.42;;
62030;SDS011;62035;52.094;5.112;2023-10-08T08:43:47;13.57;;;3.53;;
62030;SDS011;62035;52.094;5.112;2023-10-08T08:46:16;8.98;;;3.80;;
62030;SDS011;62035;52.094;5.112;2023-10-08T08:48:44;8.98;;;4.57;;
62030;SDS011;62035;52.094;5.112;2023-10-08T08:51:11;10.93;;;3.83;;
62030;SDS011;62035;52.094;5.112;2023-10-08T08:53:39;8.85;;;4.30;;
62030;SDS011;62035;52.094;5.112;2023-10-08T08:56:08;14.82;;;6.55;;
62030;SDS011;62035;52.094;5.112;2023-10-08T08:58:36;7.60;;;3.75;;
62030;SDS011;62035;52.094;5.112;2023-10-08T09:01:06;10.73;;;4.13;;
62030;SDS011;62035;52.094;5.112;2023-10-08T09:03:36;6.70;;;3.35;;
62030;SDS011;62035;52.094;5.112;2023-10-08T09:06:05;7.47;;;3.55;;
62030;SDS011;62035;52.094;5.112;2023-10-08T09:08:33;7.80;;;3.00;;
62030;SDS011;62035;52.094;5.112;2023-10-08T09:11:00;7.10;;;3.38;;
62030;SDS011;62035;52.094;5.112;2023-10-08T09:13:30;10.48;;;4.32;;
62030;SDS011;62035;52.094;5.112;2023-10-08T09:16:02;8.18;;;3.95;;
62030;SDS011;62035;52.094;5.112;2023-10-08T09:18:33;10.90;;;4.25;;
62030;SDS011;62035;52.094;5.112;2023-10-08T09:21:08;7.55;;;4.07;;
62030;SDS011;62035;52.094;5.112;2023-10-08T09:23:40;7.82;;;3.95;;
62030;SDS011;62035;52.094;5.112;2023-10-08T09:26:13;8.60;;;3.25;;
62030;SDS011;62035;52.094;5.112;2023-10-08T09:28:44;7.93;;;3.35;;
62030;SDS011;62035;52.094;5.112;2023-10-08T09:31:14;7.22;;;3.10;;
62030;SDS011;62035;52.094;5.112;2023-10-08T09:33:43;9.00;;;3.38;;
62030;SDS011;62035;52.094;5.112;2023-10-08T09:36:21;7.85;;;3.13;;
62030;SDS011;62035;52.094;5.112;2023-10-08T09:38:57;7.93;;;3.67;;
62030;SDS011;62035;52.094;5.112;2023-10-08T09:41:26;7.68;;;3.15;;
62030;SDS011;62035;52.094;5.112;2023-10-08T09:43:56;6.18;;;3.00;;
62030;SDS011;62035;52.094;5.112;2023-10-08T09:46:27;11.35;;;2.85;;
62030;SDS011;62035;52.094;5.112;2023-10-08T09:48:59;8.77;;;3.15;;
62030;SDS011;62035;52.094;5.112;2023-10-08T09:51:29;7.28;;;3.58;;
62030;SDS011;62035;52.094;5.112;2023-10-08T09:54:00;7.55;;;3.20;;
62030;SDS011;62035;52.094;5.112;2023-10-08T09:56:36;6.32;;;2.58;;
62030;SDS011;62035;52.094;5.112;2023-10-08T09:59:05;7.95;;;2.90;;
62030;SDS011;62035;52.094;5.112;2023-10-08T10:01:35;9.02;;;2.80;;
62030;SDS011;62035;52.094;5.112;2023-10-08T10:04:05;10.32;;;3.22;;
62030;SDS011;62035;52.094;5.112;2023-10-08T10:06:36;8.50;;;2.90;;
62030;SDS011;62035;52.094;5.112;2023-10-08T10:09:04;7.80;;;3.22;;
62030;SDS011;62035;52.094;5.112;2023-10-08T10:11:35;5.28;;;2.25;;
62030;SDS011;62035;52.094;5.112;2023-10-08T10:14:02;6.25;;;2.17;;
62030;SDS011;62035;52.094;5.112;2023-10-08T10:16:32;5.05;;;2.28;;
62030;SDS011;62035;52.094;5.112;2023-10-08T10:19:04;6.65;;;2.58;;
62030;SDS011;62035;52.094;5.112;2023-10-08T10:21:32;5.45;;;2.40;;
62030;SDS011;62035;52.094;5.112;2023-10-08T10:24:01;8.15;;;2.58;;
62030;SDS011;62035;52.094;5.112;2023-10-08T10:26:31;6.22;;;2.78;;
62030;SDS011;62035;52.094;5.112;2023-10-08T10:29:19;5.78;;;2.85;;
62030;SDS011;62035;52.094;5.112;2023-10-08T10:31:52;7.90;;;2.55;;
62030;SDS011;62035;52.094;5.112;2023-10-08T10:34:23;4.60;;;2.22;;
62030;SDS011;62035;52.094;5.112;2023-10-08T10:36:53;7.28;;;2.72;;
62030;SDS011;62035;52.094;5.112;2023-10-08T10:39:30;5.82;;;2.70;;
62030;SDS011;62035;52.094;5.112;2023-10-08T10:42:00;9.50;;;2.90;;
62030;SDS011;62035;52.094;5.112;2023-10-08T10:44:31;5.07;;;2.42;;
62030;SDS011;62035;52.094;5.112;2023-10-08T10:47:02;7.80;;;2.88;;
62030;SDS011;62035;52.094;5.112;2023-10-08T10:49:52;5.55;;;2.55;;
62030;SDS011;62035;52.094;5.112;2023-10-08T10:52:21;6.75;;;3.00;;
62030;SDS011;62035;52.094;5.112;2023-10-08T10:55:03;5.43;;;2.58;;
62030;SDS011;62035;52.094;5.112;2023-10-08T10:57:47;6.15;;;3.22;;
62030;SDS011;62035;52.094;5.112;2023-10-08T11:00:20;6.15;;;2.72;;
62030;SDS011;62035;52.094;5.112;2023-10-08T11:03:13;8.57;;;3.03;;
62030;SDS011;62035;52.094;5.112;2023-10-08T11:05:43;5.55;;;3.00;;
62030;SDS011;62035;52.094;5.112;2023-10-08T11:08:15;6.20;;;2.72;;
62030;SDS011;62035;52.094;5.112;2023-10-08T11:10:46;6.28;;;2.70;;
62030;SDS011;62035;52.094;5.112;2023-10-08T11:13:17;7.10;;;3.60;;
62030;SDS011;62035;52.094;5.112;2023-10-08T11:15:46;7.65;;;3.13;;
62030;SDS011;62035;52.094;5.112;2023-10-08T11:18:17;7.95;;;3.10;;
62030;SDS011;62035;52.094;5.112;2023-10-08T11:20:47;8.52;;;3.42;;
62030;SDS011;62035;52.094;5.112;2023-10-08T11:23:32;6.57;;;3.58;;
62030;SDS011;62035;52.094;5.112;2023-10-08T11:26:03;6.97;;;3.72;;
62030;SDS011;62035;52.094;5.112;2023-10-08T11:28:32;8.30;;;3.15;;
62030;SDS011;62035;52.094;5.112;2023-10-08T11:31:00;5.38;;;2.90;;
62030;SDS011;62035;52.094;5.112;2023-10-08T11:33:33;9.93;;;3.58;;
62030;SDS011;62035;52.094;5.112;2023-10-08T11:36:02;7.43;;;3.30;;
62030;SDS011;62035;52.094;5.112;2023-10-08T11:38:38;7.72;;;3.58;;
62030;SDS011;62035;52.094;5.112;2023-10-08T11:41:11;8.32;;;3.40;;
62030;SDS011;62035;52.094;5.112;2023-10-08T11:43:47;9.18;;;3.13;;
62030;SDS011;62035;52.094;5.112;2023-10-08T11:46:20;8.23;;;3.47;;
62030;SDS011;62035;52.094;5.112;2023-10-08T11:48:51;7.47;;;4.05;;
62030;SDS011;62035;52.094;5.112;2023-10-08T11:51:18;7.50;;;3.38;;
62030;SDS011;62035;52.094;5.112;2023-10-08T11:53:49;7.18;;;3.72;;
62030;SDS011;62035;52.094;5.112;2023-10-08T11:56:18;11.00;;;3.60;;
62030;SDS011;62035;52.094;5.112;2023-10-08T11:58:49;9.57;;;3.72;;
62030;SDS011;62035;52.094;5.112;2023-10-08T12:01:17;6.20;;;3.53;;
62030;SDS011;62035;52.094;5.112;2023-10-08T12:03:44;7.53;;;3.55;;
62030;SDS011;62035;52.094;5.112;2023-10-08T12:06:12;9.38;;;3.78;;
62030;SDS011;62035;52.094;5.112;2023-10-08T12:08:44;8.32;;;3.50;;
62030;SDS011;62035;52.094;5.112;2023-10-08T12:11:12;7.30;;;3.60;;
62030;SDS011;62035;52.094;5.112;2023-10-08T12:13:41;6.45;;;3.58;;
62030;SDS011;62035;52.094;5.112;2023-10-08T12:16:12;8.43;;;3.72;;
62030;SDS011;62035;52.094;5.112;2023-10-08T12:18:46;7.70;;;4.15;;
62030;SDS011;62035;52.094;5.112;2023-10-08T12:21:19;7.28;;;3.40;;
62030;SDS011;62035;52.094;5.112;2023-10-08T12:23:47;7.50;;;3.42;;
62030;SDS011;62035;52.094;5.112;2023-10-08T12:26:15;6.72;;;3.83;;
62030;SDS011;62035;52.094;5.112;2023-10-08T12:28:46;7.43;;;4.20;;
62030;SDS011;62035;52.094;5.112;2023-10-08T12:31:14;6.95;;;3.53;;
62030;SDS011;62035;52.094;5.112;2023-10-08T12:33:42;6.63;;;3.58;;
62030;SDS011;62035;52.094;5.112;2023-10-08T12:36:10;6.78;;;4.22;;
62030;SDS011;62035;52.094;5.112;2023-10-08T12:38:38;8.40;;;4.80;;
62030;SDS011;62035;52.094;5.112;2023-10-08T12:41:08;7.95;;;3.58;;
62030;SDS011;62035;52.094;5.112;2023-10-08T12:43:38;11.07;;;3.58;;
62030;SDS011;62035;52.094;5.112;2023-10-08T12:46:09;8.23;;;3.78;;
62030;SDS011;62035;52.094;5.112;2023-10-08T12:48:44;7.82;;;3.63;;
62030;SDS011;62035;52.094;5.112;2023-10-08T12:51:16;7.35;;;3.55;;
62030;SDS011;62035;52.094;5.112;2023-10-08T12:53:43;6.20;;;3.22;;
62030;SDS011;62035;52.094;5.112;2023-10-08T12:56:16;8.57;;;3.58;;
62030;SDS011;62035;52.094;5.112;2023-10-08T12:58:47;10.57;;;4.32;;
62030;SDS011;62035;52.094;5.112;2023-10-08T13:01:16;12.45;;;3.10;;
62030;SDS011;62035;52.094;5.112;2023-10-08T13:03:44;6.80;;;3.55;;
62030;SDS011;62035;52.094;5.112;2023-10-08T13:06:14;7.97;;;3.25;;
62030;SDS011;62035;52.094;5.112;2023-10-08T13:08:48;6.93;;;2.90;;
62030;SDS011;62035;52.094;5.112;2023-10-08T13:11:18;9.93;;;3.38;;
62030;SDS011;62035;52.094;5.112;2023-10-08T13:13:49;7.40;;;2.75;;
62030;SDS011;62035;52.094;5.112;2023-10-08T13:16:18;6.38;;;2.80;;
62030;SDS011;62035;52.094;5.112;2023-10-08T13:18:47;7.85;;;3.60;;
62030;SDS011;62035;52.094;5.112;2023-10-08T13:21:14;6.78;;;2.85;;
62030;SDS011;62035;52.094;5.112;2023-10-08T13:23:41;8.13;;;3.05;;
62030;SDS011;62035;52.094;5.112;2023-10-08T13:26:09;7.30;;;3.13;;
62030;SDS011;62035;52.094;5.112;2023-10-08T13:28:43;10.60;;;3.20;;
62030;SDS011;62035;52.094;5.112;2023-10-08T13:31:11;5.65;;;3.30;;
62030;SDS011;62035;52.094;5.112;2023-10-08T13:33:40;7.93;;;3.70;;
62030;SDS011;62035;52.094;5.112;2023-10-08T13:38:39;9.07;;;3.65;;
62030;SDS011;62035;52.094;5.112;2023-10-08T13:41:07;10.88;;;3.72;;
62030;SDS011;62035;52.094;5.112;2023-10-08T13:43:41;5.30;;;2.72;;
62030;SDS011;62035;52.094;5.112;2023-10-08T13:46:11;7.90;;;3.00;;
62030;SDS011;62035;52.094;5.112;2023-10-08T13:48:41;6.80;;;2.97;;
62030;SDS011;62035;52.094;5.112;2023-10-08T13:51:12;6.20;;;3.03;;
62030;SDS011;62035;52.094;5.112;2023-10-08T13:53:40;6.93;;;3.17;;
62030;SDS011;62035;52.094;5.112;2023-10-08T13:56:11;7.90;;;3.53;;
62030;SDS011;62035;52.094;5.112;2023-10-08T13:58:39;9.90;;;3.47;;
62030;SDS011;62035;52.094;5.112;2023-10-08T14:01:12;10.60;;;4.30;;
62030;SDS011;62035;52.094;5.112;2023-10-08T14:03:47;7.85;;;4.28;;
62030;SDS011;62035;52.094;5.112;2023-10-08T14:06:19;13.32;;;3.60;;
62030;SDS011;62035;52.094;5.112;2023-10-08T14:08:47;11.80;;;3.70;;
62030;SDS011;62035;52.094;5.112;2023-10-08T14:11:18;12.57;;;3.78;;
62030;SDS011;62035;52.094;5.112;2023-10-08T14:13:49;8.95;;;3.30;;
62030;SDS011;62035;52.094;5.112;2023-10-08T14:16:17;8.90;;;3.40;;
62030;SDS011;62035;52.094;5.112;2023-10-08T14:18:50;10.48;;;3.80;;
62030;SDS011;62035;52.094;5.112;2023-10-08T14:21:19;9.70;;;3.33;;
62030;SDS011;62035;52.094;5.112;2023-10-08T14:23:49;6.57;;;3.03;;
62030;SDS011;62035;52.094;5.112;2023-10-08T14:26:17;8.32;;;3.22;;
62030;SDS011;62035;52.094;5.112;2023-10-08T14:28:47;10.80;;;3.22;;
62030;SDS011;62035;52.094;5.112;2023-10-08T14:33:48;8.65;;;3.20;;
62030;SDS011;62035;52.094;5.112;2023-10-08T14:36:31;11.68;;;3.70;;
62030;SDS011;62035;52.094;5.112;2023-10-08T14:39:16;9.43;;;4.00;;
62030;SDS011;62035;52.094;5.112;2023-10-08T14:42:10;6.70;;;3.10;;
62030;SDS011;62035;52.094;5.112;2023-10-08T14:44:54;6.57;;;3.30;;
62030;SDS011;62035;52.094;5.112;2023-10-08T14:47:22;13.13;;;4.28;;
62030;SDS011;62035;52.094;5.112;2023-10-08T14:49:50;7.22;;;3.65;;
62030;SDS011;62035;52.094;5.112;2023-10-08T14:52:18;9.63;;;3.60;;
62030;SDS011;62035;52.094;5.112;2023-10-08T14:54:45;9.40;;;3.15;;
62030;SDS011;62035;52.094;5.112;2023-10-08T14:57:13;7.90;;;3.63;;
62030;SDS011;62035;52.094;5.112;2023-10-08T14:59:41;7.22;;;2.72;;
62030;SDS011;62035;52.094;5.112;2023-10-08T15:02:08;8.23;;;3.63;;
62030;SDS011;62035;52.094;5.112;2023-10-08T15:04:36;8.77;;;3.75;;
62030;SDS011;62035;52.094;5.112;2023-10-08T15:07:06;7.95;;;4.00;;
62030;SDS011;62035;52.094;5.112;2023-10-08T15:09:36;10.75;;;3.65;;
62030;SDS011;62035;52.094;5.112;2023-10-08T15:12:05;9.75;;;3.30;;
62030;SDS011;62035;52.094;5.112;2023-10-08T15:14:33;7.88;;;3.63;;
62030;SDS011;62035;52.094;5.112;2023-10-08T15:17:00;8.18;;;4.10;;
62030;SDS011;62035;52.094;5.112;2023-10-08T15:19:28;10.13;;;4.40;;
62030;SDS011;62035;52.094;5.112;2023-10-08T15:21:57;10.95;;;3.97;;